createdAt,value
2023-05-19T00:25:18.058Z,13.02
2023-05-19T00:27:57.599Z,13.13
2023-05-19T00:30:24.553Z,13.15
2023-05-19T00:32:51.954Z,13.32
2023-05-19T00:35:19.038Z,13.29
2023-05-19T00:42:43.827Z,12.98
2023-05-19T00:48:41.925Z,13.04
2023-05-19T00:52:05.995Z,12.99
2023-05-19T00:54:34.748Z,13.33
2023-05-19T00:57:04.552Z,12.82
2023-05-19T00:59:31.529Z,12.85
2023-05-19T01:14:02.579Z,13.13
2023-05-19T01:20:48.214Z,13.29
2023-05-19T01:27:30.180Z,12.90
2023-05-19T01:30:59.487Z,13.02
2023-05-19T01:37:21.601Z,12.68
2023-05-19T01:40:15.206Z,12.89
2023-05-19T01:46:08.931Z,12.51
2023-05-19T01:48:41.881Z,12.79
2023-05-19T01:51:09.274Z,12.70
2023-05-19T01:53:38.631Z,12.79
2023-05-19T01:56:08.760Z,12.68
2023-05-19T01:58:47.505Z,12.80
2023-05-19T02:01:17.776Z,12.68
2023-05-19T02:04:20.449Z,12.90
2023-05-19T02:07:20.976Z,12.94
2023-05-19T02:10:04.013Z,12.77
2023-05-19T02:12:45.071Z,12.86
2023-05-19T02:15:52.138Z,12.68
2023-05-19T02:18:56.502Z,12.34
2023-05-19T02:21:38.840Z,12.58
2023-05-19T02:28:13.910Z,12.58
2023-05-19T02:33:58.158Z,12.64
2023-05-19T02:37:31.523Z,12.60
2023-05-19T02:40:42.121Z,12.12
2023-05-19T02:43:09.036Z,12.60
2023-05-19T02:45:36.583Z,12.38
2023-05-19T02:48:03.964Z,12.33
2023-05-19T02:50:33.838Z,12.30
2023-05-19T02:53:01.628Z,12.21
2023-05-19T02:55:30.155Z,12.18
2023-05-19T02:58:06.083Z,12.12
2023-05-19T03:00:35.341Z,11.93
2023-05-19T03:03:39.887Z,11.89
2023-05-19T03:10:26.091Z,12.12
2023-05-19T03:16:28.429Z,11.98
2023-05-19T03:17:44.358Z,11.97
2023-05-19T03:35:05.670Z,11.94
2023-05-19T03:37:42.317Z,12.23
2023-05-19T03:43:01.902Z,12.13
2023-05-19T03:45:55.090Z,12.01
2023-05-19T04:47:59.635Z,13.57
2023-05-19T04:50:26.649Z,13.68
2023-05-19T04:53:23.879Z,13.15
2023-05-19T04:55:52.469Z,13.52
2023-05-19T04:58:49.052Z,13.95
2023-05-19T05:01:26.681Z,13.87
2023-05-19T05:03:59.261Z,15.52
2023-05-19T05:15:55.010Z,15.87
2023-05-19T05:18:22.170Z,15.42
2023-05-19T05:20:49.399Z,16.36
2023-05-19T05:23:16.967Z,16.01
2023-05-19T05:25:44.760Z,15.48
2023-05-19T05:28:11.969Z,15.54
2023-05-19T05:30:39.019Z,16.89
2023-05-19T05:33:06.523Z,17.13
2023-05-19T05:35:33.980Z,17.94
2023-05-19T05:38:02.639Z,17.63
2023-05-19T05:40:29.730Z,18.32
2023-05-19T05:42:57.085Z,17.49
2023-05-19T05:45:24.075Z,16.95
2023-05-19T05:47:51.764Z,18.48
2023-05-19T05:50:19.388Z,18.76
2023-05-19T05:52:50.162Z,18.28
2023-05-19T05:55:20.377Z,18.95
2023-05-19T05:57:48.982Z,19.17
2023-05-19T06:00:16.307Z,18.52
2023-05-19T06:02:47.569Z,18.78
2023-05-19T06:05:15.037Z,19.62
2023-05-19T06:07:41.979Z,19.99
2023-05-19T06:10:10.309Z,19.08
2023-05-19T06:12:40.922Z,19.53
2023-05-19T06:15:08.399Z,17.51
2023-05-19T06:17:36.250Z,17.51
2023-05-19T06:20:05.889Z,18.04
2023-05-19T06:22:32.696Z,17.42
2023-05-19T06:24:59.606Z,17.79
2023-05-19T06:27:26.677Z,18.44
2023-05-19T06:29:53.641Z,19.61
2023-05-19T06:32:21.026Z,19.18
2023-05-19T06:34:54.335Z,18.68
2023-05-19T06:37:23.104Z,18.51
2023-05-19T06:39:54.086Z,19.82
2023-05-19T06:42:22.806Z,19.91
2023-05-19T06:44:53.397Z,20.28
2023-05-19T06:47:20.446Z,19.02
2023-05-19T06:49:51.890Z,19.67
2023-05-19T06:52:19.132Z,20.28
2023-05-19T06:55:05.053Z,20.73
2023-05-19T06:57:31.970Z,21.06
2023-05-19T06:59:58.852Z,20.68
2023-05-19T07:02:25.762Z,19.69
2023-05-19T07:04:54.226Z,19.84
2023-05-19T07:07:21.423Z,20.42
2023-05-19T07:09:48.190Z,20.49
2023-05-19T07:12:15.248Z,20.72
2023-05-19T07:14:42.034Z,20.93
2023-05-19T07:17:09.392Z,20.99
2023-05-19T07:19:36.309Z,21.33
2023-05-19T07:22:03.254Z,21.23
2023-05-19T07:24:31.155Z,21.80
2023-05-19T07:26:58.541Z,21.68
2023-05-19T07:29:25.963Z,21.36
2023-05-19T07:31:58.116Z,21.42
2023-05-19T07:34:25.620Z,20.86
2023-05-19T07:36:52.627Z,21.54
2023-05-19T07:39:19.699Z,22.38
2023-05-19T07:41:52.824Z,22.06
2023-05-19T07:44:20.127Z,21.81
2023-05-19T07:46:56.035Z,22.09
2023-05-19T07:49:23.169Z,21.86
2023-05-19T07:51:53.156Z,21.77
2023-05-19T07:54:21.321Z,21.56
2023-05-19T07:56:48.465Z,22.05
2023-05-19T08:01:43.023Z,22.39
2023-05-19T08:04:12.703Z,22.89
2023-05-19T08:06:40.507Z,21.78
2023-05-19T08:09:07.620Z,22.51
2023-05-19T08:11:37.861Z,22.20
2023-05-19T08:14:04.946Z,22.86
2023-05-19T08:16:32.257Z,22.06
2023-05-19T08:19:05.759Z,21.99
2023-05-19T08:21:34.788Z,22.71
2023-05-19T08:24:02.352Z,22.02
2023-05-19T08:26:29.439Z,21.81
2023-05-19T08:28:56.423Z,22.42
2023-05-19T08:31:23.628Z,21.82
2023-05-19T08:33:51.405Z,22.66
2023-05-19T08:36:18.800Z,22.02
2023-05-19T08:38:45.807Z,21.55
2023-05-19T08:41:12.596Z,20.67
2023-05-19T08:43:40.052Z,21.17
2023-05-19T08:46:08.373Z,21.76
2023-05-19T08:48:39.669Z,21.85
2023-05-19T08:51:28.016Z,21.44
2023-05-19T08:54:02.576Z,21.21
2023-05-19T08:56:31.687Z,21.89
2023-05-19T08:59:01.011Z,22.35
2023-05-19T09:01:32.773Z,23.02
2023-05-19T09:03:59.812Z,23.03
2023-05-19T09:06:27.355Z,23.17
2023-05-19T09:08:54.344Z,23.84
2023-05-19T09:11:22.800Z,23.60
2023-05-19T09:13:50.194Z,22.52
2023-05-19T09:16:17.977Z,22.06
2023-05-19T09:18:57.396Z,22.31
2023-05-19T09:21:34.680Z,22.41
2023-05-19T09:24:08.645Z,22.86
2023-05-19T09:26:40.029Z,22.95
2023-05-19T09:29:19.392Z,23.51
2023-05-19T09:31:56.334Z,24.28
2023-05-19T09:34:29.082Z,22.37
2023-05-19T09:37:09.651Z,22.50
2023-05-19T09:39:39.254Z,23.14
2023-05-19T09:45:22.924Z,24.02
2023-05-19T09:47:50.183Z,22.82
2023-05-19T09:50:24.437Z,23.00
2023-05-19T09:52:53.278Z,24.16
2023-05-19T09:55:23.356Z,24.20
2023-05-19T09:57:51.704Z,24.15
2023-05-19T10:00:19.812Z,24.25
2023-05-19T10:27:19.858Z,22.67
2023-05-19T10:29:53.934Z,22.71
2023-05-19T10:32:25.110Z,22.57
2023-05-19T10:35:28.952Z,22.41
2023-05-19T10:38:08.013Z,22.30
2023-05-19T10:40:41.533Z,22.22
2023-05-19T10:43:59.877Z,21.68
2023-05-19T10:49:26.944Z,22.27
2023-05-19T10:52:09.243Z,21.91
2023-05-19T10:54:43.981Z,21.94
2023-05-19T10:57:15.681Z,22.10
2023-05-19T10:59:45.299Z,22.15
2023-05-19T11:02:40.325Z,22.33
2023-05-19T11:05:14.966Z,22.72
2023-05-19T11:08:22.323Z,22.62
2023-05-19T11:10:52.838Z,22.95
2023-05-19T11:13:28.812Z,23.42
2023-05-19T11:15:57.004Z,22.84
2023-05-19T11:18:26.958Z,23.40
2023-05-19T11:21:04.555Z,23.36
2023-05-19T11:23:50.684Z,24.39
2023-05-19T11:26:44.213Z,24.13
2023-05-19T11:29:27.357Z,24.06
2023-05-19T11:31:55.727Z,24.07
2023-05-19T11:34:26.202Z,24.85
2023-05-19T11:37:38.818Z,24.10
2023-05-19T11:40:11.761Z,24.90
2023-05-19T11:42:45.537Z,24.82
2023-05-19T11:45:14.915Z,25.18
2023-05-19T11:48:00.879Z,24.95
2023-05-19T11:50:29.399Z,25.34
2023-05-19T11:52:57.102Z,24.92
2023-05-19T11:55:25.093Z,24.62
2023-05-19T12:00:31.269Z,23.76
2023-05-19T12:02:58.521Z,23.79
2023-05-19T12:05:27.247Z,23.94
2023-05-19T12:07:54.259Z,23.61
2023-05-19T12:10:26.422Z,23.81
2023-05-19T12:12:54.461Z,23.72
2023-05-19T12:15:25.469Z,23.54
2023-05-19T12:17:57.268Z,23.60
2023-05-19T12:20:32.131Z,23.65
2023-05-19T12:23:01.869Z,23.66
2023-05-19T12:25:36.192Z,23.50
2023-05-19T12:28:04.015Z,23.74
2023-05-19T12:30:32.876Z,23.87
2023-05-19T12:33:02.482Z,23.99
2023-05-19T12:36:37.053Z,23.88
2023-05-19T12:39:09.961Z,23.45
2023-05-19T12:41:45.957Z,23.85
2023-05-19T12:47:11.736Z,23.58
2023-05-19T12:50:12.120Z,23.60
2023-05-19T12:53:29.114Z,23.65
2023-05-19T12:56:00.519Z,23.54
2023-05-19T12:58:28.147Z,23.84
2023-05-19T13:01:03.601Z,23.61
2023-05-19T13:03:33.267Z,24.02
2023-05-19T13:06:20.370Z,23.85
2023-05-19T13:12:55.083Z,23.70
2023-05-19T13:15:31.848Z,24.55
2023-05-19T13:20:07.584Z,24.37
2023-05-19T13:21:26.822Z,24.82
2023-05-19T13:23:57.552Z,25.00
2023-05-19T13:26:32.545Z,25.05
2023-05-19T13:29:00.068Z,24.93
2023-05-19T13:31:29.532Z,25.51
2023-05-19T13:34:04.982Z,25.77
2023-05-19T13:36:58.204Z,25.78
2023-05-19T13:39:25.477Z,25.31
2023-05-19T13:41:54.873Z,25.48
2023-05-19T13:44:31.571Z,25.60
2023-05-19T13:47:06.241Z,25.34
2023-05-19T13:49:33.196Z,25.06
2023-05-19T13:52:01.311Z,25.01
2023-05-19T13:57:20.903Z,25.15
2023-05-19T14:00:15.840Z,25.35
2023-05-19T14:02:45.824Z,25.29
2023-05-19T14:07:53.313Z,25.13
2023-05-19T14:10:23.212Z,25.06
2023-05-19T14:15:32.668Z,25.03
2023-05-19T14:18:10.224Z,24.22
2023-05-19T14:20:44.313Z,23.83
2023-05-19T14:23:28.035Z,23.82
2023-05-19T14:25:54.965Z,23.93
2023-05-19T14:28:23.832Z,23.81
2023-05-19T14:30:55.704Z,23.71
2023-05-19T14:33:22.963Z,23.51
2023-05-19T14:35:50.071Z,23.67
2023-05-19T14:38:16.884Z,23.46
2023-05-19T14:40:54.187Z,23.71
2023-05-19T14:43:21.589Z,23.52
2023-05-19T15:19:06.563Z,22.28
2023-05-19T16:39:23.858Z,21.95
2023-05-19T16:41:54.380Z,22.08
2023-05-19T16:44:30.225Z,22.25
2023-05-19T16:46:57.239Z,22.24
2023-05-19T16:49:24.191Z,22.33
2023-05-19T16:51:53.056Z,22.40
2023-05-19T16:54:21.354Z,22.59
2023-05-19T16:56:48.170Z,22.52
2023-05-19T16:59:15.090Z,22.49
2023-05-19T17:01:42.659Z,22.40
2023-05-19T17:04:12.049Z,22.25
2023-05-19T17:06:39.117Z,22.18
2023-05-19T17:09:06.255Z,22.30
2023-05-19T17:11:33.987Z,22.31
2023-05-19T17:14:02.170Z,21.96
2023-05-19T17:16:29.261Z,22.07
2023-05-19T17:18:56.247Z,22.04
2023-05-19T17:21:23.163Z,21.95
2023-05-19T17:23:56.387Z,21.90
2023-05-19T17:26:23.256Z,21.72
2023-05-19T17:28:53.080Z,21.66
2023-05-19T17:31:20.076Z,21.49
2023-05-19T17:33:47.165Z,21.34
2023-05-19T17:36:14.400Z,21.21
2023-05-19T17:38:42.046Z,21.36
2023-05-19T17:41:14.283Z,21.27
2023-05-19T17:43:41.810Z,21.08
2023-05-19T17:46:09.222Z,21.01
2023-05-19T17:48:40.071Z,20.78
2023-05-19T17:51:08.842Z,20.62
2023-05-19T17:53:36.781Z,20.26
2023-05-19T17:56:07.818Z,20.43
2023-05-19T17:58:35.580Z,20.23
2023-05-19T18:01:08.881Z,19.98
2023-05-19T18:04:23.577Z,19.67
2023-05-19T18:06:38.733Z,19.45
2023-05-19T18:09:10.408Z,19.39
2023-05-19T18:11:37.565Z,19.24
2023-05-19T18:14:04.957Z,19.21
2023-05-19T18:16:42.210Z,18.98
2023-05-19T18:19:12.495Z,19.07
2023-05-19T18:21:44.134Z,18.78
2023-05-19T18:24:16.532Z,18.77
2023-05-19T18:26:43.685Z,18.75
2023-05-19T18:29:13.139Z,18.56
2023-05-19T18:31:43.076Z,18.38
2023-05-19T18:34:10.152Z,18.33
2023-05-19T18:36:36.987Z,18.75
2023-05-19T18:39:04.881Z,18.59
2023-05-19T18:41:32.317Z,18.48
2023-05-19T18:43:59.176Z,18.56
2023-05-19T18:46:26.473Z,18.47
2023-05-19T18:48:53.793Z,18.32
2023-05-19T18:51:22.296Z,18.20
2023-05-19T18:53:56.036Z,18.41
2023-05-19T18:56:26.557Z,18.29
2023-05-19T18:58:55.059Z,18.03
2023-05-19T19:01:22.062Z,18.29
2023-05-19T19:04:06.317Z,17.91
2023-05-19T19:06:37.055Z,17.93
2023-05-19T19:09:07.521Z,18.05
2023-05-19T19:11:41.761Z,18.12
2023-05-19T19:16:53.212Z,17.69
2023-05-19T19:19:24.242Z,17.38
2023-05-19T19:22:01.258Z,17.44
2023-05-19T19:24:35.191Z,17.31
2023-05-19T19:27:09.066Z,17.43
2023-05-19T19:29:39.019Z,17.13
2023-05-19T19:32:06.548Z,17.52
2023-05-19T19:34:43.544Z,17.35
2023-05-19T19:40:15.934Z,16.97
2023-05-19T19:42:48.918Z,16.98
2023-05-19T19:45:20.002Z,16.98
2023-05-19T19:47:47.240Z,16.94
2023-05-19T19:50:17.353Z,16.88
2023-05-19T19:52:50.501Z,17.05
2023-05-19T20:15:20.270Z,16.54
2023-05-19T20:17:49.682Z,16.56
2023-05-19T20:20:16.976Z,16.43
2023-05-19T20:22:46.238Z,16.16
2023-05-19T20:25:13.136Z,16.20
2023-05-19T20:27:40.701Z,16.10
2023-05-19T20:30:11.699Z,16.30
2023-05-19T20:32:39.313Z,16.15
2023-05-19T20:35:07.318Z,16.56
2023-05-19T20:37:34.869Z,16.54
2023-05-19T20:40:37.460Z,16.56
2023-05-19T20:43:10.034Z,16.33
2023-05-19T20:45:39.441Z,16.14
2023-05-19T20:48:06.526Z,16.33
2023-05-19T20:50:33.790Z,16.29
2023-05-19T20:53:01.242Z,15.95
2023-05-19T20:55:31.172Z,15.99
2023-05-19T20:57:58.378Z,15.94
2023-05-19T21:00:25.190Z,16.17
2023-05-19T21:02:52.149Z,16.16
2023-05-19T21:05:19.428Z,16.04
2023-05-19T21:07:46.634Z,16.25
2023-05-19T21:10:15.989Z,16.08
2023-05-19T21:12:48.417Z,16.04
2023-05-19T21:15:16.633Z,16.38
2023-05-19T21:17:52.511Z,16.40
2023-05-19T21:20:19.379Z,16.16
2023-05-19T21:22:46.134Z,16.07
2023-05-19T21:25:15.396Z,15.92
2023-05-19T21:27:42.466Z,15.70
2023-05-19T21:30:09.852Z,15.60
2023-05-19T21:32:39.230Z,15.64
2023-05-19T21:35:12.937Z,15.80
2023-05-19T21:37:40.118Z,15.87
2023-05-19T21:40:09.419Z,15.32
2023-05-19T21:42:36.202Z,15.23
2023-05-19T21:45:03.237Z,15.51
2023-05-19T21:47:30.098Z,15.45
2023-05-19T21:49:57.015Z,15.39
2023-05-19T21:52:24.000Z,15.29
2023-05-19T21:54:52.302Z,15.08
2023-05-19T21:57:46.042Z,15.62
2023-05-19T22:00:28.938Z,15.86
2023-05-19T22:02:56.288Z,15.97
2023-05-19T22:05:23.269Z,15.51
2023-05-19T22:07:50.381Z,15.59
2023-05-19T22:10:25.018Z,15.74
2023-05-19T22:12:57.782Z,15.67
2023-05-19T22:18:08.799Z,15.86
2023-05-19T22:20:35.876Z,15.87
2023-05-19T22:23:04.933Z,15.34
2023-05-19T22:25:32.214Z,15.39
2023-05-19T22:28:02.348Z,15.50
2023-05-19T22:30:38.611Z,15.46
2023-05-19T22:33:08.330Z,15.53
2023-05-19T22:35:35.207Z,15.19
2023-05-19T22:38:02.228Z,15.72
2023-05-19T22:40:29.321Z,15.31
2023-05-19T22:42:56.375Z,14.91
2023-05-19T22:45:23.294Z,14.84
2023-05-19T22:47:51.067Z,15.27
2023-05-19T22:50:18.015Z,15.15
2023-05-19T22:52:44.999Z,15.34
2023-05-19T22:55:11.761Z,15.25
2023-05-19T22:57:38.666Z,14.82
2023-05-19T23:00:06.307Z,14.63
2023-05-19T23:02:33.360Z,14.93
2023-05-19T23:05:00.370Z,14.93
2023-05-19T23:07:27.325Z,14.91
2023-05-19T23:09:54.413Z,14.79
2023-05-19T23:12:21.312Z,14.63
2023-05-19T23:14:48.231Z,14.70
2023-05-19T23:17:18.964Z,14.83
2023-05-19T23:19:46.020Z,14.60
2023-05-19T23:22:12.890Z,14.75
2023-05-19T23:24:39.743Z,14.40
2023-05-19T23:27:06.973Z,14.25
2023-05-19T23:29:34.413Z,14.21
2023-05-19T23:32:01.547Z,14.21
2023-05-19T23:34:28.494Z,14.07
2023-05-19T23:36:55.760Z,14.38
2023-05-19T23:39:25.302Z,14.46
2023-05-19T23:41:52.203Z,14.31
2023-05-19T23:44:19.402Z,14.28
2023-05-19T23:46:46.280Z,14.34
2023-05-19T23:49:13.371Z,14.37
2023-05-19T23:51:40.300Z,13.98
2023-05-19T23:54:07.389Z,14.49
2023-05-19T23:56:34.237Z,14.19
2023-05-19T23:59:01.460Z,13.93
